Time;durP1;ratioP1;P1;durP2;ratioP2;P2;SDS_P1;SDS_P2;PMS_P1;PMS_P2;Temp;Humidity;BMP_temperature;BMP_pressure;BME280_temperature;BME280_humidity;BME280_pressure;Samples;Min_cycle;Max_cycle;Signal;HPM_P1;HPM_P2
2022/08/28 00:00:18;;;;;;;1.88;1.65;;;;;;;;;;5034938;28;20029;-69
2022/08/28 00:02:45;;;;;;;2.40;1.55;;;;;;;;;;5034192;28;20049;-69
2022/08/28 00:05:13;;;;;;;2.90;1.90;;;;;;;;;;5034315;28;20041;-69
2022/08/28 00:07:39;;;;;;;2.50;1.88;;;;;;;;;;5034800;28;20045;-69
2022/08/28 00:10:06;;;;;;;2.83;1.58;;;;;;;;;;5034145;28;20095;-69
2022/08/28 00:12:33;;;;;;;2.20;2.00;;;;;;;;;;5033914;28;20034;-69
2022/08/28 00:14:59;;;;;;;2.42;1.50;;;;;;;;;;5034326;28;20029;-69
2022/08/28 00:17:25;;;;;;;2.65;2.10;;;;;;;;;;5034613;28;20053;-69
2022/08/28 00:19:51;;;;;;;2.38;1.60;;;;;;;;;;5034859;28;20512;-69
2022/08/28 00:22:18;;;;;;;2.40;1.83;;;;;;;;;;5034348;28;20042;-69
2022/08/28 00:24:44;;;;;;;1.80;1.60;;;;;;;;;;5034585;28;20049;-69
2022/08/28 00:29:55;;;;;;;2.13;1.95;;;;;;;;;;5033760;28;20052;-69
2022/08/28 00:32:23;;;;;;;3.33;1.85;;;;;;;;;;5034253;28;20041;-69
2022/08/28 00:34:50;;;;;;;3.28;1.83;;;;;;;;;;5034505;28;20033;-69
2022/08/28 00:37:16;;;;;;;2.95;1.90;;;;;;;;;;5034536;28;20083;-69
2022/08/28 00:39:42;;;;;;;2.50;1.80;;;;;;;;;;5038247;28;20045;-69
2022/08/28 00:42:09;;;;;;;5.88;1.60;;;;;;;;;;5037653;28;20037;-69
2022/08/28 00:44:35;;;;;;;1.98;1.88;;;;;;;;;;5037974;28;20033;-69
2022/08/28 00:47:02;;;;;;;3.83;1.60;;;;;;;;;;5038467;28;20049;-69
2022/08/28 00:49:37;;;;;;;1.70;1.50;;;;;;;;;;5037589;28;20041;-69
2022/08/28 00:52:06;;;;;;;3.45;1.60;;;;;;;;;;5038183;28;20033;-69
2022/08/28 00:54:35;;;;;;;1.95;1.60;;;;;;;;;;5038336;28;20041;-69
2022/08/28 00:57:03;;;;;;;5.10;2.00;;;;;;;;;;5038200;28;20073;-69
2022/08/28 00:59:29;;;;;;;1.95;1.83;;;;;;;;;;5038614;28;20065;-69
2022/08/28 01:01:56;;;;;;;2.17;1.98;;;;;;;;;;5038271;28;20072;-69
2022/08/28 01:04:23;;;;;;;1.65;1.55;;;;;;;;;;5037927;28;20044;-69
2022/08/28 01:06:52;;;;;;;1.70;1.50;;;;;;;;;;5037549;28;20116;-69
2022/08/28 01:09:19;;;;;;;2.28;1.55;;;;;;;;;;5038636;28;20041;-69
2022/08/28 01:11:46;;;;;;;3.03;1.80;;;;;;;;;;5037514;28;20523;-69
2022/08/28 01:14:13;;;;;;;2.03;1.60;;;;;;;;;;5037267;28;20072;-69
2022/08/28 01:16:41;;;;;;;3.50;1.90;;;;;;;;;;5037727;28;20052;-69
2022/08/28 01:19:13;;;;;;;2.35;1.70;;;;;;;;;;5037120;28;20044;-69
2022/08/28 01:21:46;;;;;;;3.05;1.70;;;;;;;;;;5037689;28;20045;-69
2022/08/28 01:24:14;;;;;;;1.70;1.60;;;;;;;;;;5038115;28;20116;-69
2022/08/28 01:26:40;;;;;;;2.00;1.80;;;;;;;;;;5037534;28;20038;-69
2022/08/28 01:29:07;;;;;;;1.88;1.73;;;;;;;;;;5037118;28;20518;-69
2022/08/28 01:31:34;;;;;;;2.42;1.80;;;;;;;;;;5037525;28;20061;-69
2022/08/28 01:34:01;;;;;;;2.42;1.70;;;;;;;;;;5037330;28;20041;-69
2022/08/28 01:36:28;;;;;;;2.20;1.60;;;;;;;;;;5037328;28;20045;-69
2022/08/28 01:38:56;;;;;;;2.03;1.80;;;;;;;;;;5037329;28;20042;-69
2022/08/28 01:41:22;;;;;;;1.85;1.67;;;;;;;;;;5037604;28;20042;-69
2022/08/28 01:43:48;;;;;;;2.05;1.85;;;;;;;;;;5036990;28;20042;-69
2022/08/28 01:46:14;;;;;;;3.53;2.10;;;;;;;;;;5037698;28;20048;-69
2022/08/28 01:48:42;;;;;;;4.70;1.88;;;;;;;;;;5037352;28;20046;-69
2022/08/28 01:51:08;;;;;;;2.78;1.65;;;;;;;;;;5036187;28;20063;-69
2022/08/28 01:53:34;;;;;;;2.80;1.73;;;;;;;;;;5037621;28;20038;-69
2022/08/28 01:56:02;;;;;;;2.15;1.98;;;;;;;;;;5036928;28;20033;-69
2022/08/28 01:58:28;;;;;;;1.65;1.50;;;;;;;;;;5036449;28;20065;-69
2022/08/28 02:00:54;;;;;;;3.13;1.85;;;;;;;;;;5036639;28;20167;-69
2022/08/28 02:03:20;;;;;;;1.65;1.55;;;;;;;;;;5036897;28;20040;-69
2022/08/28 02:05:47;;;;;;;2.60;2.08;;;;;;;;;;5036720;28;20045;-69
2022/08/28 02:08:13;;;;;;;1.67;1.58;;;;;;;;;;5036842;28;20515;-69
2022/08/28 02:10:42;;;;;;;2.92;1.65;;;;;;;;;;5036653;28;20122;-69
2022/08/28 02:13:09;;;;;;;1.85;1.70;;;;;;;;;;5036188;28;20033;-69
2022/08/28 02:15:35;;;;;;;1.80;1.58;;;;;;;;;;5036518;28;20555;-69
2022/08/28 02:18:02;;;;;;;3.17;1.70;;;;;;;;;;5035719;28;20045;-69
2022/08/28 02:20:28;;;;;;;2.08;1.83;;;;;;;;;;5036014;28;20048;-69
2022/08/28 02:22:56;;;;;;;2.17;1.75;;;;;;;;;;5036360;28;20045;-69
2022/08/28 02:25:22;;;;;;;1.48;1.38;;;;;;;;;;5035750;28;20049;-69
2022/08/28 02:27:49;;;;;;;4.63;1.90;;;;;;;;;;5035874;28;20107;-69
2022/08/28 02:30:16;;;;;;;3.33;1.98;;;;;;;;;;5035982;28;20140;-69
2022/08/28 02:32:42;;;;;;;3.17;2.13;;;;;;;;;;5036019;28;20046;-69
2022/08/28 02:35:09;;;;;;;2.03;1.88;;;;;;;;;;5035971;28;20041;-69
2022/08/28 02:37:36;;;;;;;2.95;1.73;;;;;;;;;;5036278;28;20073;-69
2022/08/28 02:40:03;;;;;;;2.63;1.63;;;;;;;;;;5036470;28;20081;-69
2022/08/28 02:42:29;;;;;;;2.47;1.85;;;;;;;;;;5035926;28;20069;-69
2022/08/28 02:44:55;;;;;;;2.60;1.98;;;;;;;;;;5036351;28;20064;-69
2022/08/28 02:47:21;;;;;;;2.63;2.15;;;;;;;;;;5036308;28;20045;-69
2022/08/28 02:49:47;;;;;;;1.65;1.55;;;;;;;;;;5035424;28;20041;-69
2022/08/28 02:52:13;;;;;;;2.65;1.80;;;;;;;;;;5035573;28;20041;-69
2022/08/28 02:54:40;;;;;;;2.55;1.85;;;;;;;;;;5036155;28;20538;-69
2022/08/28 02:57:10;;;;;;;4.20;2.17;;;;;;;;;;5035620;28;20044;-69
2022/08/28 02:59:37;;;;;;;2.13;1.70;;;;;;;;;;5035363;28;20061;-69
2022/08/28 03:02:05;;;;;;;2.55;1.52;;;;;;;;;;5034898;28;20037;-69
2022/08/28 03:04:32;;;;;;;2.55;1.75;;;;;;;;;;5035337;28;20047;-69
2022/08/28 03:06:58;;;;;;;2.72;1.80;;;;;;;;;;5035346;28;20485;-69
2022/08/28 03:09:24;;;;;;;2.58;1.90;;;;;;;;;;5034996;28;20064;-69
2022/08/28 03:11:52;;;;;;;2.80;1.85;;;;;;;;;;5034873;28;20042;-69
2022/08/28 03:14:19;;;;;;;1.83;1.73;;;;;;;;;;5034914;28;20484;-69
2022/08/28 03:16:45;;;;;;;2.78;2.08;;;;;;;;;;5035125;28;20053;-69
2022/08/28 03:19:11;;;;;;;2.17;1.67;;;;;;;;;;5035219;28;20037;-69
2022/08/28 03:21:38;;;;;;;8.10;1.70;;;;;;;;;;5035405;28;20069;-69
2022/08/28 03:24:04;;;;;;;2.30;2.10;;;;;;;;;;5035287;28;20065;-69
2022/08/28 03:26:30;;;;;;;1.83;1.70;;;;;;;;;;5035261;28;20557;-69
2022/08/28 03:28:56;;;;;;;1.65;1.55;;;;;;;;;;5034871;28;20503;-69
2022/08/28 03:31:24;;;;;;;2.22;2.03;;;;;;;;;;5035460;28;20060;-69
2022/08/28 03:33:51;;;;;;;2.20;1.88;;;;;;;;;;5035706;28;20034;-69
2022/08/28 03:36:22;;;;;;;2.10;1.88;;;;;;;;;;5034766;28;20045;-69
2022/08/28 03:38:49;;;;;;;2.35;1.98;;;;;;;;;;5035427;28;20484;-69
2022/08/28 03:41:17;;;;;;;4.20;1.63;;;;;;;;;;5035080;28;20092;-69
2022/08/28 03:43:43;;;;;;;2.10;1.80;;;;;;;;;;5034569;28;20037;-69
2022/08/28 03:46:13;;;;;;;3.33;2.08;;;;;;;;;;5034347;28;20041;-69
2022/08/28 03:48:39;;;;;;;2.33;2.00;;;;;;;;;;5034751;28;20099;-69
2022/08/28 03:51:06;;;;;;;2.10;1.90;;;;;;;;;;5034386;28;20435;-69
2022/08/28 03:53:32;;;;;;;2.60;1.60;;;;;;;;;;5034654;28;20072;-69
2022/08/28 03:55:58;;;;;;;2.00;1.80;;;;;;;;;;5034634;28;20496;-69
2022/08/28 03:58:25;;;;;;;1.90;1.80;;;;;;;;;;5034252;28;20132;-69
2022/08/28 04:00:51;;;;;;;2.17;1.98;;;;;;;;;;5034181;28;20033;-69
2022/08/28 04:03:18;;;;;;;3.65;2.35;;;;;;;;;;5034536;28;20091;-69
2022/08/28 04:05:45;;;;;;;2.60;1.92;;;;;;;;;;5035782;28;20073;-69
2022/08/28 04:08:15;;;;;;;2.50;2.25;;;;;;;;;;5034805;28;20053;-69
2022/08/28 04:10:42;;;;;;;2.20;1.98;;;;;;;;;;5034400;28;20086;-69
2022/08/28 04:13:09;;;;;;;2.08;1.90;;;;;;;;;;5037281;28;20573;-69
2022/08/28 04:15:35;;;;;;;1.85;1.75;;;;;;;;;;5040979;28;20045;-69
2022/08/28 04:18:01;;;;;;;2.70;2.05;;;;;;;;;;5040991;28;20060;-69
2022/08/28 04:20:27;;;;;;;2.75;1.92;;;;;;;;;;5040616;28;20034;-69
2022/08/28 04:22:54;;;;;;;3.65;2.17;;;;;;;;;;5041243;28;20065;-69
2022/08/28 04:25:20;;;;;;;2.10;1.90;;;;;;;;;;5040983;28;20045;-69
2022/08/28 04:27:47;;;;;;;4.13;1.67;;;;;;;;;;5040133;28;20060;-69
2022/08/28 04:30:13;;;;;;;4.10;2.53;;;;;;;;;;5040868;28;20125;-69
2022/08/28 04:32:39;;;;;;;2.22;2.05;;;;;;;;;;5040873;28;20045;-69
2022/08/28 04:35:08;;;;;;;2.65;2.00;;;;;;;;;;5040931;28;20048;-69
2022/08/28 04:37:35;;;;;;;2.55;1.90;;;;;;;;;;5040521;28;20045;-69
2022/08/28 04:40:01;;;;;;;2.22;2.03;;;;;;;;;;5040968;28;20069;-69
2022/08/28 04:42:27;;;;;;;2.30;2.10;;;;;;;;;;5040843;28;20041;-69
2022/08/28 04:45:01;;;;;;;2.33;2.13;;;;;;;;;;5040693;28;20037;-69
2022/08/28 04:47:27;;;;;;;2.20;2.00;;;;;;;;;;5041445;28;20049;-69
2022/08/28 04:49:54;;;;;;;2.45;2.25;;;;;;;;;;5040944;28;20464;-69
2022/08/28 04:52:21;;;;;;;3.03;1.90;;;;;;;;;;5040948;28;20080;-69
2022/08/28 04:54:48;;;;;;;3.28;2.20;;;;;;;;;;5040564;28;20033;-69
2022/08/28 04:57:14;;;;;;;2.55;2.10;;;;;;;;;;5040180;28;20072;-69
2022/08/28 04:59:43;;;;;;;2.58;1.92;;;;;;;;;;5041035;28;20198;-69
2022/08/28 05:02:09;;;;;;;3.58;2.30;;;;;;;;;;5040775;28;20037;-69
2022/08/28 05:04:35;;;;;;;2.33;1.90;;;;;;;;;;5040584;28;20045;-69
2022/08/28 05:07:02;;;;;;;2.20;1.95;;;;;;;;;;5041183;28;20541;-69
2022/08/28 05:09:30;;;;;;;3.83;2.05;;;;;;;;;;5041142;28;20081;-69
2022/08/28 05:11:56;;;;;;;2.33;2.08;;;;;;;;;;5040114;28;20072;-69
2022/08/28 05:14:22;;;;;;;6.57;2.30;;;;;;;;;;5040124;28;20030;-69
2022/08/28 05:16:50;;;;;;;2.75;2.00;;;;;;;;;;5040364;28;20534;-69
2022/08/28 05:19:16;;;;;;;3.90;2.20;;;;;;;;;;5040059;28;20072;-69
2022/08/28 05:21:42;;;;;;;3.58;2.60;;;;;;;;;;5040344;28;20048;-69
2022/08/28 05:24:09;;;;;;;2.88;2.20;;;;;;;;;;5039370;28;20036;-69
2022/08/28 05:26:36;;;;;;;3.85;2.40;;;;;;;;;;5037767;28;20099;-69
2022/08/28 05:29:03;;;;;;;3.53;2.20;;;;;;;;;;5036482;28;20041;-69
2022/08/28 05:31:30;;;;;;;4.80;2.92;;;;;;;;;;5036890;28;20116;-69
2022/08/28 05:33:56;;;;;;;2.88;2.22;;;;;;;;;;5037190;28;20045;-69
2022/08/28 05:36:23;;;;;;;2.50;2.30;;;;;;;;;;5037128;28;20045;-69
2022/08/28 05:38:50;;;;;;;3.78;2.67;;;;;;;;;;5036866;28;20519;-69
2022/08/28 05:41:23;;;;;;;4.03;2.50;;;;;;;;;;5037265;28;20064;-69
2022/08/28 05:43:49;;;;;;;4.50;2.17;;;;;;;;;;5036565;28;20119;-69
2022/08/28 05:46:16;;;;;;;3.33;2.80;;;;;;;;;;5036517;28;20049;-69
2022/08/28 05:48:42;;;;;;;5.63;2.40;;;;;;;;;;5036280;28;20172;-69
2022/08/28 05:51:10;;;;;;;3.25;2.33;;;;;;;;;;5037034;28;20073;-69
2022/08/28 05:53:40;;;;;;;7.97;2.25;;;;;;;;;;5036451;28;20042;-69
2022/08/28 05:56:19;;;;;;;3.17;2.63;;;;;;;;;;5037377;28;20055;-69
2022/08/28 05:58:45;;;;;;;2.60;2.40;;;;;;;;;;5036509;28;20488;-69
2022/08/28 06:01:15;;;;;;;3.55;2.30;;;;;;;;;;5037252;28;20069;-69
2022/08/28 06:03:43;;;;;;;3.10;2.80;;;;;;;;;;5036994;28;20048;-69
2022/08/28 06:06:10;;;;;;;6.13;2.47;;;;;;;;;;5036799;28;20073;-69
2022/08/28 06:08:37;;;;;;;3.30;2.33;;;;;;;;;;5037376;28;20128;-69
2022/08/28 06:11:04;;;;;;;3.10;2.80;;;;;;;;;;5036725;28;20033;-69
2022/08/28 06:13:30;;;;;;;4.07;2.88;;;;;;;;;;5036489;28;20033;-69
2022/08/28 06:15:57;;;;;;;2.53;2.33;;;;;;;;;;5036650;28;20041;-69
2022/08/28 06:18:23;;;;;;;2.72;2.53;;;;;;;;;;5036070;28;20042;-69
2022/08/28 06:20:49;;;;;;;4.10;2.67;;;;;;;;;;5036540;28;20030;-69
2022/08/28 06:23:17;;;;;;;5.35;2.65;;;;;;;;;;5036504;28;20045;-69
2022/08/28 06:25:45;;;;;;;2.70;2.50;;;;;;;;;;5036361;28;20139;-69
2022/08/28 06:28:13;;;;;;;2.70;2.20;;;;;;;;;;5035930;28;20514;-69
2022/08/28 06:30:40;;;;;;;4.80;2.78;;;;;;;;;;5036144;28;20038;-69
2022/08/28 06:33:06;;;;;;;4.55;2.40;;;;;;;;;;5037087;28;20049;-69
2022/08/28 06:35:33;;;;;;;2.75;2.47;;;;;;;;;;5036345;28;20045;-69
2022/08/28 06:38:00;;;;;;;5.18;2.40;;;;;;;;;;5036477;28;20052;-69
2022/08/28 06:40:27;;;;;;;5.10;2.72;;;;;;;;;;5036096;28;20030;-69
2022/08/28 06:42:53;;;;;;;5.55;2.78;;;;;;;;;;5036311;28;20496;-69
2022/08/28 06:45:19;;;;;;;4.60;2.63;;;;;;;;;;5036306;28;20041;-69
2022/08/28 06:47:46;;;;;;;4.07;2.92;;;;;;;;;;5018590;28;20440;-69
2022/08/28 06:50:13;;;;;;;8.05;2.63;;;;;;;;;;5036287;28;20094;-69
2022/08/28 06:52:39;;;;;;;6.05;2.70;;;;;;;;;;5036103;28;20118;-69
2022/08/28 06:55:05;;;;;;;4.30;2.95;;;;;;;;;;5036187;28;20041;-69
2022/08/28 06:57:32;;;;;;;5.07;3.17;;;;;;;;;;5036088;28;20041;-69
2022/08/28 06:59:58;;;;;;;4.72;2.78;;;;;;;;;;5035873;28;20041;-69
2022/08/28 07:02:25;;;;;;;4.50;3.10;;;;;;;;;;5035844;28;20049;-69
2022/08/28 07:04:52;;;;;;;4.72;2.97;;;;;;;;;;5035688;28;20034;-69
2022/08/28 07:07:18;;;;;;;4.63;3.22;;;;;;;;;;5035028;28;20504;-69
2022/08/28 07:09:45;;;;;;;6.95;2.78;;;;;;;;;;5035572;28;20562;-69
2022/08/28 07:12:13;;;;;;;6.80;3.60;;;;;;;;;;5035356;28;20044;-69
2022/08/28 07:14:39;;;;;;;4.10;3.22;;;;;;;;;;5035563;28;20041;-69
2022/08/28 07:17:06;;;;;;;6.32;3.63;;;;;;;;;;5035851;28;20053;-69
2022/08/28 07:19:33;;;;;;;3.70;3.40;;;;;;;;;;5035376;28;20057;-69
2022/08/28 07:21:59;;;;;;;4.57;2.97;;;;;;;;;;5035943;28;20073;-69
2022/08/28 07:24:25;;;;;;;7.80;2.70;;;;;;;;;;5035316;28;20037;-69
2022/08/28 07:26:52;;;;;;;4.60;3.10;;;;;;;;;;5017432;28;20459;-69
2022/08/28 07:29:18;;;;;;;7.47;3.22;;;;;;;;;;5035257;28;20041;-69
2022/08/28 07:31:47;;;;;;;8.48;3.40;;;;;;;;;;5035287;28;20049;-69
2022/08/28 07:34:14;;;;;;;3.50;2.97;;;;;;;;;;5035594;28;20056;-69
2022/08/28 07:36:41;;;;;;;5.35;3.63;;;;;;;;;;5035469;28;20081;-69
2022/08/28 07:39:08;;;;;;;4.28;3.17;;;;;;;;;;5035121;28;20048;-69
2022/08/28 07:41:37;;;;;;;4.03;3.25;;;;;;;;;;5035631;28;20033;-69
2022/08/28 07:46:52;;;;;;;3.38;3.15;;;;;;;;;;5034253;28;20506;-69
2022/08/28 07:49:18;;;;;;;4.47;3.00;;;;;;;;;;5034883;28;20049;-69
2022/08/28 07:51:44;;;;;;;3.85;3.47;;;;;;;;;;5034914;28;20041;-69
2022/08/28 07:54:11;;;;;;;4.53;3.08;;;;;;;;;;5035000;28;20068;-69
2022/08/28 07:56:39;;;;;;;3.45;2.83;;;;;;;;;;5035685;28;20046;-69
2022/08/28 07:59:06;;;;;;;4.60;2.78;;;;;;;;;;5034554;28;20156;-69
2022/08/28 08:01:36;;;;;;;3.88;3.45;;;;;;;;;;5034574;28;20480;-69
2022/08/28 08:04:04;;;;;;;3.80;3.50;;;;;;;;;;5033932;28;20057;-69
2022/08/28 08:06:30;;;;;;;3.33;3.03;;;;;;;;;;5034019;28;20445;-69
2022/08/28 08:08:57;;;;;;;3.10;2.90;;;;;;;;;;5034764;28;20041;-69
2022/08/28 08:11:23;;;;;;;4.95;3.33;;;;;;;;;;5034457;28;20037;-69
2022/08/28 08:13:49;;;;;;;6.18;3.50;;;;;;;;;;5034342;28;20095;-69
2022/08/28 08:16:17;;;;;;;4.22;3.30;;;;;;;;;;5034158;28;20072;-69
2022/08/28 08:18:44;;;;;;;3.10;2.85;;;;;;;;;;5034052;28;20464;-69
2022/08/28 08:21:11;;;;;;;5.10;3.78;;;;;;;;;;5034354;28;20037;-69
2022/08/28 08:23:40;;;;;;;3.80;3.47;;;;;;;;;;5034331;28;20041;-69
2022/08/28 08:26:08;;;;;;;4.43;3.85;;;;;;;;;;5033964;28;20611;-69
2022/08/28 08:28:34;;;;;;;4.72;3.85;;;;;;;;;;5034261;28;20045;-69
2022/08/28 08:31:05;;;;;;;4.85;3.65;;;;;;;;;;5034287;28;20072;-69
2022/08/28 08:33:31;;;;;;;6.32;3.90;;;;;;;;;;5034485;28;20041;-69
2022/08/28 08:35:58;;;;;;;3.85;3.55;;;;;;;;;;5017028;28;20463;-69
2022/08/28 08:38:24;;;;;;;3.95;3.65;;;;;;;;;;5034401;28;20052;-69
2022/08/28 08:40:50;;;;;;;5.05;3.88;;;;;;;;;;5034937;28;20055;-69
2022/08/28 08:43:17;;;;;;;4.10;3.38;;;;;;;;;;5033918;28;20096;-69
2022/08/28 08:45:45;;;;;;;5.28;3.60;;;;;;;;;;5034048;28;20045;-69
2022/08/28 08:48:19;;;;;;;4.18;3.78;;;;;;;;;;5034401;28;20045;-69
2022/08/28 08:50:46;;;;;;;4.10;3.70;;;;;;;;;;5034053;28;20056;-69
2022/08/28 08:53:18;;;;;;;3.42;3.20;;;;;;;;;;5034307;28;20045;-69
2022/08/28 08:55:46;;;;;;;3.70;3.40;;;;;;;;;;5034835;28;20041;-69
2022/08/28 08:58:25;;;;;;;4.03;3.45;;;;;;;;;;5033550;28;20129;-69
2022/08/28 09:01:10;;;;;;;3.75;3.45;;;;;;;;;;5038137;28;20076;-69
2022/08/28 09:03:47;;;;;;;3.70;3.40;;;;;;;;;;5037501;28;20563;-69
2022/08/28 09:06:24;;;;;;;4.72;3.78;;;;;;;;;;5037014;28;20107;-69
2022/08/28 09:08:53;;;;;;;4.38;3.60;;;;;;;;;;5038203;28;20064;-69
2022/08/28 09:11:29;;;;;;;5.75;3.75;;;;;;;;;;5037383;28;20159;-69
2022/08/28 09:14:18;;;;;;;5.78;3.53;;;;;;;;;;5037358;28;20099;-69
2022/08/28 09:16:45;;;;;;;4.10;3.28;;;;;;;;;;5008641;28;20045;-69
2022/08/28 09:19:14;;;;;;;4.18;3.70;;;;;;;;;;5037178;28;20072;-69
2022/08/28 09:21:41;;;;;;;4.32;3.88;;;;;;;;;;5037945;28;20037;-69
2022/08/28 09:24:12;;;;;;;4.00;3.60;;;;;;;;;;5037279;28;20029;-69
2022/08/28 09:26:39;;;;;;;4.50;3.33;;;;;;;;;;5036950;28;20100;-69
2022/08/28 09:29:06;;;;;;;4.55;3.60;;;;;;;;;;5036838;28;20033;-69
2022/08/28 09:31:34;;;;;;;6.50;3.65;;;;;;;;;;5037153;28;20095;-69
2022/08/28 09:34:19;;;;;;;3.17;2.97;;;;;;;;;;5036856;28;20029;-69
2022/08/28 09:36:46;;;;;;;3.53;3.22;;;;;;;;;;5037049;28;20041;-69
2022/08/28 09:39:12;;;;;;;3.30;3.00;;;;;;;;;;5036728;28;20087;-69
2022/08/28 09:44:25;;;;;;;3.55;3.25;;;;;;;;;;5036519;28;20099;-69
2022/08/28 09:46:51;;;;;;;5.10;3.17;;;;;;;;;;5036851;28;20049;-69
2022/08/28 09:49:23;;;;;;;4.75;3.10;;;;;;;;;;5036871;28;20034;-69
2022/08/28 09:51:49;;;;;;;4.15;3.20;;;;;;;;;;5036983;28;20073;-69
2022/08/28 09:54:21;;;;;;;2.88;2.67;;;;;;;;;;5037284;28;20540;-69
2022/08/28 09:56:49;;;;;;;3.97;2.90;;;;;;;;;;5036860;28;20049;-69
2022/08/28 09:59:17;;;;;;;3.92;2.75;;;;;;;;;;5036616;28;20083;-69
2022/08/28 10:01:49;;;;;;;4.70;2.60;;;;;;;;;;5036578;28;20091;-69
2022/08/28 10:04:21;;;;;;;2.72;2.53;;;;;;;;;;5036816;28;20041;-69
2022/08/28 10:06:51;;;;;;;4.28;2.97;;;;;;;;;;5036801;28;20107;-69
2022/08/28 10:09:24;;;;;;;2.97;2.30;;;;;;;;;;5036139;28;20041;-69
2022/08/28 10:12:00;;;;;;;3.85;2.50;;;;;;;;;;5035674;28;20041;-69
2022/08/28 10:14:42;;;;;;;4.75;2.55;;;;;;;;;;5036438;28;20120;-69
2022/08/28 10:17:18;;;;;;;2.38;2.17;;;;;;;;;;5036676;28;20079;-69
2022/08/28 10:19:49;;;;;;;4.18;2.75;;;;;;;;;;5036705;28;20076;-69
2022/08/28 10:22:21;;;;;;;3.75;2.42;;;;;;;;;;5037134;28;20123;-69
2022/08/28 10:25:01;;;;;;;4.05;2.40;;;;;;;;;;5036334;28;20045;-69
2022/08/28 10:27:38;;;;;;;2.63;2.17;;;;;;;;;;5036293;28;20046;-69
2022/08/28 10:30:06;;;;;;;3.00;2.30;;;;;;;;;;5036488;28;20075;-69
2022/08/28 10:32:47;;;;;;;2.20;2.00;;;;;;;;;;5036067;28;20060;-69
2022/08/28 10:35:29;;;;;;;3.25;2.45;;;;;;;;;;5036152;28;20041;-69
2022/08/28 10:38:15;;;;;;;2.40;2.22;;;;;;;;;;5036231;28;20500;-69
2022/08/28 10:40:51;;;;;;;3.42;2.22;;;;;;;;;;5035622;28;20400;-69
2022/08/28 10:43:29;;;;;;;4.68;2.60;;;;;;;;;;5035536;28;20100;-69
2022/08/28 10:45:58;;;;;;;2.72;2.40;;;;;;;;;;5035202;28;20595;-69
2022/08/28 10:48:26;;;;;;;4.40;2.70;;;;;;;;;;5035868;28;20119;-69
2022/08/28 10:50:55;;;;;;;2.70;2.50;;;;;;;;;;5035493;28;20148;-69
2022/08/28 10:53:28;;;;;;;3.65;2.45;;;;;;;;;;5035619;28;20060;-69
2022/08/28 10:55:58;;;;;;;2.70;2.50;;;;;;;;;;5035326;28;20037;-69
2022/08/28 10:58:26;;;;;;;3.17;2.60;;;;;;;;;;5035173;28;20481;-69
2022/08/28 11:00:58;;;;;;;3.58;2.20;;;;;;;;;;5035452;28;20060;-69
2022/08/28 11:03:26;;;;;;;2.60;2.40;;;;;;;;;;5035846;28;20053;-69
2022/08/28 11:05:54;;;;;;;2.60;2.40;;;;;;;;;;5035109;28;20478;-69
2022/08/28 11:08:31;;;;;;;5.22;2.25;;;;;;;;;;5035409;28;20067;-69
2022/08/28 11:10:59;;;;;;;2.90;2.60;;;;;;;;;;5035184;28;20120;-69
2022/08/28 11:13:43;;;;;;;3.80;2.20;;;;;;;;;;5035046;28;20037;-69
2022/08/28 11:16:18;;;;;;;3.85;2.60;;;;;;;;;;5034994;28;20588;-69
2022/08/28 11:19:13;;;;;;;2.95;2.22;;;;;;;;;;5034916;28;20050;-69
2022/08/28 11:21:58;;;;;;;3.90;2.05;;;;;;;;;;5021566;28;20041;-69
2022/08/28 11:24:27;;;;;;;2.92;2.65;;;;;;;;;;5034780;28;20037;-69
2022/08/28 11:27:18;;;;;;;2.83;2.38;;;;;;;;;;5034957;28;20049;-69
2022/08/28 11:30:01;;;;;;;2.88;2.50;;;;;;;;;;5035606;28;20045;-69
2022/08/28 11:32:33;;;;;;;3.88;2.20;;;;;;;;;;5034693;28;20384;-69
2022/08/28 11:35:00;;;;;;;2.85;2.20;;;;;;;;;;5034996;28;20048;-69
2022/08/28 11:37:43;;;;;;;2.70;2.50;;;;;;;;;;5034612;28;20045;-69
2022/08/28 11:40:15;;;;;;;3.15;2.50;;;;;;;;;;5034895;28;20041;-69
2022/08/28 11:42:42;;;;;;;3.15;2.53;;;;;;;;;;5034296;28;20492;-69
2022/08/28 11:45:17;;;;;;;2.95;2.45;;;;;;;;;;5034422;28;20044;-69
2022/08/28 11:47:45;;;;;;;3.47;2.42;;;;;;;;;;5034876;28;20128;-69
2022/08/28 11:50:14;;;;;;;5.50;2.55;;;;;;;;;;5034363;28;20041;-69
2022/08/28 11:52:46;;;;;;;2.80;2.60;;;;;;;;;;5034956;28;20041;-69
2022/08/28 11:55:18;;;;;;;2.78;2.42;;;;;;;;;;5035232;28;20538;-69
2022/08/28 11:57:59;;;;;;;2.78;2.45;;;;;;;;;;5034174;28;20069;-69
2022/08/28 12:00:51;;;;;;;3.50;2.25;;;;;;;;;;5035142;28;20124;-69
2022/08/28 12:03:35;;;;;;;2.78;2.58;;;;;;;;;;5010933;28;20073;-69
2022/08/28 12:06:02;;;;;;;2.53;2.33;;;;;;;;;;5034461;28;20095;-69
2022/08/28 12:08:44;;;;;;;2.63;2.42;;;;;;;;;;5035052;28;20128;-69
2022/08/28 12:11:11;;;;;;;2.60;2.40;;;;;;;;;;5034114;28;20033;-70
2022/08/28 12:13:42;;;;;;;2.85;2.58;;;;;;;;;;5034409;28;20052;-71
2022/08/28 12:16:08;;;;;;;3.92;2.90;;;;;;;;;;5034679;28;20496;-70
2022/08/28 12:18:43;;;;;;;2.90;2.70;;;;;;;;;;5033892;28;20590;-69
2022/08/28 12:21:21;;;;;;;2.60;2.40;;;;;;;;;;5034906;28;20041;-70
2022/08/28 12:23:56;;;;;;;3.25;2.70;;;;;;;;;;5034637;28;20050;-69
2022/08/28 12:26:25;;;;;;;2.70;2.45;;;;;;;;;;5033980;28;20050;-70
2022/08/28 12:28:54;;;;;;;2.45;2.25;;;;;;;;;;5033992;28;20523;-69
2022/08/28 12:34:20;;;;;;;3.83;2.92;;;;;;;;;;5035206;28;20036;-69
2022/08/28 12:36:54;;;;;;;2.50;2.30;;;;;;;;;;5038901;28;20049;-69
2022/08/28 12:39:20;;;;;;;3.85;3.20;;;;;;;;;;5037589;28;20041;-69
2022/08/28 12:41:46;;;;;;;3.83;2.75;;;;;;;;;;5038667;28;20060;-69
2022/08/28 12:44:14;;;;;;;3.72;2.40;;;;;;;;;;5037983;28;20045;-69
2022/08/28 12:46:42;;;;;;;4.20;2.70;;;;;;;;;;5038511;28;20050;-69
2022/08/28 12:49:28;;;;;;;3.72;2.80;;;;;;;;;;5038254;28;20124;-69
2022/08/28 12:52:26;;;;;;;3.92;2.80;;;;;;;;;;5038523;28;20052;-69
2022/08/28 12:54:57;;;;;;;3.17;2.90;;;;;;;;;;4998325;28;20483;-69
2022/08/28 12:57:24;;;;;;;4.82;2.38;;;;;;;;;;5037176;28;20044;-70
2022/08/28 12:59:53;;;;;;;2.95;2.50;;;;;;;;;;5037481;28;20033;-69
2022/08/28 13:02:25;;;;;;;3.92;2.78;;;;;;;;;;5038298;28;20060;-70
2022/08/28 13:04:54;;;;;;;2.67;2.45;;;;;;;;;;5037462;28;20504;-70
2022/08/28 13:07:25;;;;;;;6.00;2.80;;;;;;;;;;5037434;28;20080;-69
2022/08/28 13:09:53;;;;;;;2.75;2.30;;;;;;;;;;5037767;28;20388;-69
2022/08/28 13:12:24;;;;;;;1.70;1.60;;;;;;;;;;5037445;28;20484;-69
2022/08/28 13:14:51;;;;;;;3.38;1.45;;;;;;;;;;5037455;28;20038;-69
2022/08/28 13:17:37;;;;;;;3.45;1.27;;;;;;;;;;5037233;28;20081;-70
2022/08/28 13:20:06;;;;;;;2.47;1.55;;;;;;;;;;5037655;28;20076;-69
2022/08/28 13:22:34;;;;;;;2.92;1.50;;;;;;;;;;5037349;28;20037;-69
2022/08/28 13:25:01;;;;;;;2.25;1.40;;;;;;;;;;5037402;28;20639;-70
2022/08/28 13:27:27;;;;;;;3.22;1.40;;;;;;;;;;5037156;28;20091;-69
2022/08/28 13:30:00;;;;;;;1.65;1.55;;;;;;;;;;5037871;28;20037;-69
2022/08/28 13:32:26;;;;;;;1.35;1.15;;;;;;;;;;5037213;28;20114;-69
2022/08/28 13:35:05;;;;;;;3.15;1.63;;;;;;;;;;5037359;28;20087;-69
2022/08/28 13:37:57;;;;;;;2.78;2.22;;;;;;;;;;5037507;28;20056;-69
2022/08/28 13:40:26;;;;;;;2.67;2.47;;;;;;;;;;5033940;28;20131;-69
2022/08/28 13:42:57;;;;;;;3.92;2.47;;;;;;;;;;5037140;28;20076;-69
2022/08/28 13:45:23;;;;;;;1.83;1.65;;;;;;;;;;5036551;28;20045;-69
2022/08/28 13:47:49;;;;;;;2.22;1.80;;;;;;;;;;5037030;28;20053;-69
2022/08/28 13:50:15;;;;;;;3.85;2.65;;;;;;;;;;5036625;28;20040;-69
2022/08/28 13:52:41;;;;;;;2.30;2.10;;;;;;;;;;5036620;28;20041;-69
2022/08/28 13:55:08;;;;;;;1.95;1.42;;;;;;;;;;5036871;28;20069;-69
2022/08/28 13:57:35;;;;;;;1.45;1.35;;;;;;;;;;5036976;28;20064;-70
2022/08/28 14:00:01;;;;;;;2.70;1.42;;;;;;;;;;5036889;28;20037;-70
2022/08/28 14:05:12;;;;;;;2.65;1.63;;;;;;;;;;5036188;28;20044;-69
2022/08/28 14:07:38;;;;;;;3.20;1.73;;;;;;;;;;5037359;28;20045;-69
2022/08/28 14:10:04;;;;;;;2.65;1.70;;;;;;;;;;5036872;28;20492;-69
2022/08/28 14:12:31;;;;;;;8.10;1.85;;;;;;;;;;5036252;28;20040;-69
2022/08/28 14:14:57;;;;;;;2.15;1.90;;;;;;;;;;5036494;28;20496;-69
2022/08/28 14:17:23;;;;;;;2.72;1.80;;;;;;;;;;5036774;28;20045;-69
2022/08/28 14:19:49;;;;;;;1.70;1.60;;;;;;;;;;5036362;28;20049;-69
2022/08/28 14:22:16;;;;;;;2.70;1.70;;;;;;;;;;5036796;28;20044;-70
2022/08/28 14:24:42;;;;;;;1.88;1.70;;;;;;;;;;5036313;28;20041;-69
2022/08/28 14:27:08;;;;;;;6.07;1.65;;;;;;;;;;5036171;28;20053;-69
2022/08/28 14:29:35;;;;;;;2.55;1.70;;;;;;;;;;5035811;28;20036;-69
2022/08/28 14:32:02;;;;;;;2.53;2.00;;;;;;;;;;5036741;28;20042;-69
2022/08/28 14:34:30;;;;;;;1.95;1.77;;;;;;;;;;5036067;28;20594;-70
2022/08/28 14:36:56;;;;;;;4.68;2.20;;;;;;;;;;5036317;28;20045;-70
2022/08/28 14:39:24;;;;;;;2.20;1.90;;;;;;;;;;5036021;28;20565;-69
2022/08/28 14:41:50;;;;;;;2.10;1.75;;;;;;;;;;5035900;28;20044;-69
2022/08/28 14:44:17;;;;;;;3.25;1.73;;;;;;;;;;5018140;28;20040;-69
2022/08/28 14:46:44;;;;;;;4.07;2.05;;;;;;;;;;5035812;28;20045;-69
2022/08/28 14:49:12;;;;;;;3.38;2.20;;;;;;;;;;5035770;28;20041;-70
2022/08/28 14:51:40;;;;;;;2.78;1.70;;;;;;;;;;5035796;28;20041;-69
2022/08/28 14:54:07;;;;;;;6.18;2.15;;;;;;;;;;5035354;28;20124;-70
2022/08/28 14:56:33;;;;;;;1.80;1.70;;;;;;;;;;5035219;28;20147;-69
2022/08/28 14:59:00;;;;;;;1.70;1.60;;;;;;;;;;5035823;28;20061;-70
2022/08/28 15:01:27;;;;;;;3.40;2.13;;;;;;;;;;5036629;28;20116;-69
2022/08/28 15:03:55;;;;;;;2.20;1.90;;;;;;;;;;5035739;28;20132;-69
2022/08/28 15:06:21;;;;;;;2.05;1.80;;;;;;;;;;5035627;28;20052;-70